Staden, Belgium
Current Conditions -  °F | °C
As of 2:20 AM on Wednesday 22 Oct 2014 (Local Time) from EBOS Reporting Station
Broken Clouds Broken Clouds  
Wind Chill: 50°   Ceiling: 4000
Heat Index: 50°   Visibility: 6mi
Dew Point: 37°   Wind: 26mph
Humidity: 62%   Direction: 310°NW
Pressure: 30.06"   Gusts: 38mph
Location:  50.97°N, 3.01°E
Report Text: EBOS 220020Z 31023G33KT 9999 SCT032 BKN040 10/03 Q1018 NOSIG
Loading
Personal Weather Stations






























Interactive Weather Map
Tropical Storm Tracking
New forecast layout! Learn more

10-Day Weather Forecast

Advertisements
Track Severe Weather on mobile